sensor_id;sensor_type;location;lat;lon;timestamp;temperature;humidity
65203;HTU21D;51788;45.124;38.966;2023-02-11T00:00:15;-3.65;78.81
65203;HTU21D;51788;45.124;38.966;2023-02-11T00:02:41;-3.62;78.68
65203;HTU21D;51788;45.124;38.966;2023-02-11T00:05:07;-3.74;78.59
65203;HTU21D;51788;45.124;38.966;2023-02-11T00:07:34;-3.83;78.92
65203;HTU21D;51788;45.124;38.966;2023-02-11T00:10:00;-3.75;79.01
65203;HTU21D;51788;45.124;38.966;2023-02-11T00:12:27;-3.61;78.86
65203;HTU21D;51788;45.124;38.966;2023-02-11T00:14:53;-3.58;78.69
65203;HTU21D;51788;45.124;38.966;2023-02-11T00:17:20;-3.63;78.63
65203;HTU21D;51788;45.124;38.966;2023-02-11T00:19:52;-3.70;78.74
65203;HTU21D;51788;45.124;38.966;2023-02-11T00:22:18;-3.81;78.96
65203;HTU21D;51788;45.124;38.966;2023-02-11T00:24:44;-3.77;79.03
65203;HTU21D;51788;45.124;38.966;2023-02-11T00:27:10;-3.65;78.94
65203;HTU21D;51788;45.124;38.966;2023-02-11T00:29:37;-3.53;78.83
65203;HTU21D;51788;45.124;38.966;2023-02-11T00:32:04;-3.45;78.69
65203;HTU21D;51788;45.124;38.966;2023-02-11T00:34:31;-3.38;78.64
65203;HTU21D;51788;45.124;38.966;2023-02-11T00:36:58;-3.32;78.62
65203;HTU21D;51788;45.124;38.966;2023-02-11T00:39:24;-3.30;78.48
65203;HTU21D;51788;45.124;38.966;2023-02-11T00:41:50;-3.35;78.51
65203;HTU21D;51788;45.124;38.966;2023-02-11T00:44:16;-3.38;78.75
65203;HTU21D;51788;45.124;38.966;2023-02-11T00:46:42;-3.32;78.74
65203;HTU21D;51788;45.124;38.966;2023-02-11T00:49:09;-3.27;78.66
65203;HTU21D;51788;45.124;38.966;2023-02-11T00:51:35;-3.22;78.72
65203;HTU21D;51788;45.124;38.966;2023-02-11T00:54:02;-3.20;78.68
65203;HTU21D;51788;45.124;38.966;2023-02-11T00:56:28;-3.17;78.72
65203;HTU21D;51788;45.124;38.966;2023-02-11T00:58:54;-3.12;78.72
65203;HTU21D;51788;45.124;38.966;2023-02-11T01:01:20;-3.11;78.69
65203;HTU21D;51788;45.124;38.966;2023-02-11T01:03:46;-3.11;78.70
65203;HTU21D;51788;45.124;38.966;2023-02-11T01:06:13;-3.10;78.72
65203;HTU21D;51788;45.124;38.966;2023-02-11T01:08:39;-3.09;78.81
65203;HTU21D;51788;45.124;38.966;2023-02-11T01:11:15;-3.09;78.86
65203;HTU21D;51788;45.124;38.966;2023-02-11T01:13:44;-3.09;78.88
65203;HTU21D;51788;45.124;38.966;2023-02-11T01:16:11;-3.16;78.81
65203;HTU21D;51788;45.124;38.966;2023-02-11T01:18:37;-3.20;79.08
65203;HTU21D;51788;45.124;38.966;2023-02-11T01:21:04;-3.18;79.05
65203;HTU21D;51788;45.124;38.966;2023-02-11T01:23:30;-3.16;79.04
65203;HTU21D;51788;45.124;38.966;2023-02-11T01:25:56;-3.10;79.03
65203;HTU21D;51788;45.124;38.966;2023-02-11T01:28:25;-3.13;79.01
65203;HTU21D;51788;45.124;38.966;2023-02-11T01:30:52;-3.15;79.06
65203;HTU21D;51788;45.124;38.966;2023-02-11T01:33:18;-3.20;79.12
65203;HTU21D;51788;45.124;38.966;2023-02-11T01:35:44;-3.18;79.17
65203;HTU21D;51788;45.124;38.966;2023-02-11T01:38:19;-3.17;79.04
65203;HTU21D;51788;45.124;38.966;2023-02-11T01:40:51;-3.19;79.17
65203;HTU21D;51788;45.124;38.966;2023-02-11T01:43:18;-3.22;79.11
65203;HTU21D;51788;45.124;38.966;2023-02-11T01:48:20;-3.41;79.40
65203;HTU21D;51788;45.124;38.966;2023-02-11T01:50:49;-3.41;79.47
65203;HTU21D;51788;45.124;38.966;2023-02-11T01:53:17;-3.34;79.45
65203;HTU21D;51788;45.124;38.966;2023-02-11T01:56:09;-3.34;79.35
65203;HTU21D;51788;45.124;38.966;2023-02-11T01:58:59;-3.30;79.32
65203;HTU21D;51788;45.124;38.966;2023-02-11T02:01:26;-3.24;79.21
65203;HTU21D;51788;45.124;38.966;2023-02-11T02:03:55;-3.23;79.21
65203;HTU21D;51788;45.124;38.966;2023-02-11T02:06:51;-3.21;79.23
65203;HTU21D;51788;45.124;38.966;2023-02-11T02:09:25;-3.19;79.24
65203;HTU21D;51788;45.124;38.966;2023-02-11T02:11:53;-3.24;79.17
65203;HTU21D;51788;45.124;38.966;2023-02-11T02:14:19;-3.30;79.35
65203;HTU21D;51788;45.124;38.966;2023-02-11T02:16:45;-3.33;79.33
65203;HTU21D;51788;45.124;38.966;2023-02-11T02:28:23;-3.23;79.32
65203;HTU21D;51788;45.124;38.966;2023-02-11T02:34:08;-3.41;79.23
65203;HTU21D;51788;45.124;38.966;2023-02-11T02:36:48;-3.72;79.66
65203;HTU21D;51788;45.124;38.966;2023-02-11T02:39:22;-3.81;80.07
65203;HTU21D;51788;45.124;38.966;2023-02-11T02:41:51;-3.79;80.12
65203;HTU21D;51788;45.124;38.966;2023-02-11T02:44:18;-3.68;79.96
65203;HTU21D;51788;45.124;38.966;2023-02-11T02:46:45;-3.70;79.66
65203;HTU21D;51788;45.124;38.966;2023-02-11T02:49:15;-3.83;79.75
65203;HTU21D;51788;45.124;38.966;2023-02-11T02:54:56;-4.02;79.93
65203;HTU21D;51788;45.124;38.966;2023-02-11T02:57:50;-4.13;80.08
65203;HTU21D;51788;45.124;38.966;2023-02-11T03:06:02;-3.92;80.04
65203;HTU21D;51788;45.124;38.966;2023-02-11T03:08:45;-3.79;79.62
65203;HTU21D;51788;45.124;38.966;2023-02-11T03:11:16;-3.78;79.50
65203;HTU21D;51788;45.124;38.966;2023-02-11T03:13:43;-3.79;79.48
65203;HTU21D;51788;45.124;38.966;2023-02-11T03:16:24;-3.74;79.64
65203;HTU21D;51788;45.124;38.966;2023-02-11T03:19:10;-3.67;79.46
65203;HTU21D;51788;45.124;38.966;2023-02-11T03:21:38;-3.65;79.38
65203;HTU21D;51788;45.124;38.966;2023-02-11T03:24:08;-3.63;79.53
65203;HTU21D;51788;45.124;38.966;2023-02-11T03:26:51;-3.49;79.41
65203;HTU21D;51788;45.124;38.966;2023-02-11T03:32:59;-3.46;79.30
65203;HTU21D;51788;45.124;38.966;2023-02-11T03:37:56;-3.33;79.28
65203;HTU21D;51788;45.124;38.966;2023-02-11T03:40:27;-3.27;79.20
65203;HTU21D;51788;45.124;38.966;2023-02-11T03:45:24;-3.30;79.12
65203;HTU21D;51788;45.124;38.966;2023-02-11T03:48:04;-3.26;79.14
65203;HTU21D;51788;45.124;38.966;2023-02-11T03:50:32;-3.23;79.14
65203;HTU21D;51788;45.124;38.966;2023-02-11T03:53:00;-3.18;79.11
65203;HTU21D;51788;45.124;38.966;2023-02-11T03:55:27;-3.15;79.08
65203;HTU21D;51788;45.124;38.966;2023-02-11T03:57:54;-3.11;79.04
65203;HTU21D;51788;45.124;38.966;2023-02-11T04:00:27;-3.08;78.96
65203;HTU21D;51788;45.124;38.966;2023-02-11T04:02:53;-3.06;78.94
65203;HTU21D;51788;45.124;38.966;2023-02-11T04:05:19;-3.04;78.92
65203;HTU21D;51788;45.124;38.966;2023-02-11T04:07:45;-3.10;78.97
65203;HTU21D;51788;45.124;38.966;2023-02-11T04:10:11;-3.09;79.04
65203;HTU21D;51788;45.124;38.966;2023-02-11T04:12:37;-3.07;79.01
65203;HTU21D;51788;45.124;38.966;2023-02-11T04:15:04;-3.05;79.00
65203;HTU21D;51788;45.124;38.966;2023-02-11T04:17:30;-3.04;78.98
65203;HTU21D;51788;45.124;38.966;2023-02-11T04:19:55;-3.03;79.01
65203;HTU21D;51788;45.124;38.966;2023-02-11T04:22:21;-3.02;78.99
65203;HTU21D;51788;45.124;38.966;2023-02-11T04:24:47;-3.00;78.98
65203;HTU21D;51788;45.124;38.966;2023-02-11T04:27:13;-3.05;78.95
65203;HTU21D;51788;45.124;38.966;2023-02-11T04:29:39;-3.12;79.00
65203;HTU21D;51788;45.124;38.966;2023-02-11T04:32:05;-3.13;79.20
65203;HTU21D;51788;45.124;38.966;2023-02-11T04:34:31;-3.07;79.18
65203;HTU21D;51788;45.124;38.966;2023-02-11T04:36:57;-3.04;79.10
65203;HTU21D;51788;45.124;38.966;2023-02-11T04:39:23;-3.06;78.95
65203;HTU21D;51788;45.124;38.966;2023-02-11T04:41:48;-3.25;79.14
65203;HTU21D;51788;45.124;38.966;2023-02-11T04:44:14;-3.30;79.40
65203;HTU21D;51788;45.124;38.966;2023-02-11T04:46:40;-3.34;79.49
65203;HTU21D;51788;45.124;38.966;2023-02-11T04:49:07;-3.26;79.48
65203;HTU21D;51788;45.124;38.966;2023-02-11T04:51:32;-3.22;79.27
65203;HTU21D;51788;45.124;38.966;2023-02-11T04:53:58;-3.21;79.30
65203;HTU21D;51788;45.124;38.966;2023-02-11T04:56:24;-3.16;79.28
65203;HTU21D;51788;45.124;38.966;2023-02-11T04:58:50;-3.06;79.22
65203;HTU21D;51788;45.124;38.966;2023-02-11T05:01:16;-2.98;79.11
65203;HTU21D;51788;45.124;38.966;2023-02-11T05:03:42;-2.91;79.13
65203;HTU21D;51788;45.124;38.966;2023-02-11T05:06:09;-2.86;79.04
65203;HTU21D;51788;45.124;38.966;2023-02-11T05:08:35;-2.90;78.91
65203;HTU21D;51788;45.124;38.966;2023-02-11T05:11:02;-2.96;79.12
65203;HTU21D;51788;45.124;38.966;2023-02-11T05:13:28;-2.94;79.08
65203;HTU21D;51788;45.124;38.966;2023-02-11T05:15:54;-2.92;79.12
65203;HTU21D;51788;45.124;38.966;2023-02-11T05:18:21;-2.84;79.04
65203;HTU21D;51788;45.124;38.966;2023-02-11T05:20:50;-2.88;78.98
65203;HTU21D;51788;45.124;38.966;2023-02-11T05:23:16;-2.95;78.98
65203;HTU21D;51788;45.124;38.966;2023-02-11T05:25:42;-3.19;79.18
65203;HTU21D;51788;45.124;38.966;2023-02-11T05:28:08;-3.36;79.46
65203;HTU21D;51788;45.124;38.966;2023-02-11T05:30:34;-3.40;79.80
65203;HTU21D;51788;45.124;38.966;2023-02-11T05:32:59;-3.40;79.68
65203;HTU21D;51788;45.124;38.966;2023-02-11T05:35:25;-3.39;79.61
65203;HTU21D;51788;45.124;38.966;2023-02-11T05:37:51;-3.40;79.65
65203;HTU21D;51788;45.124;38.966;2023-02-11T05:40:17;-3.37;79.57
65203;HTU21D;51788;45.124;38.966;2023-02-11T05:42:43;-3.33;79.43
65203;HTU21D;51788;45.124;38.966;2023-02-11T05:45:09;-3.34;79.48
65203;HTU21D;51788;45.124;38.966;2023-02-11T05:47:35;-3.33;79.46
65203;HTU21D;51788;45.124;38.966;2023-02-11T05:50:01;-3.22;79.42
65203;HTU21D;51788;45.124;38.966;2023-02-11T05:52:27;-3.15;79.21
65203;HTU21D;51788;45.124;38.966;2023-02-11T05:54:53;-3.15;79.14
65203;HTU21D;51788;45.124;38.966;2023-02-11T05:57:18;-3.04;79.20
65203;HTU21D;51788;45.124;38.966;2023-02-11T05:59:44;-2.92;78.84
65203;HTU21D;51788;45.124;38.966;2023-02-11T06:02:10;-2.76;78.68
65203;HTU21D;51788;45.124;38.966;2023-02-11T06:04:36;-2.66;78.28
65203;HTU21D;51788;45.124;38.966;2023-02-11T06:07:03;-2.58;78.21
65203;HTU21D;51788;45.124;38.966;2023-02-11T06:09:29;-2.51;78.05
65203;HTU21D;51788;45.124;38.966;2023-02-11T06:11:55;-2.38;77.92
65203;HTU21D;51788;45.124;38.966;2023-02-11T06:14:21;-2.27;77.77
65203;HTU21D;51788;45.124;38.966;2023-02-11T06:16:47;-2.22;77.80
65203;HTU21D;51788;45.124;38.966;2023-02-11T06:19:12;-2.23;77.97
65203;HTU21D;51788;45.124;38.966;2023-02-11T06:21:38;-2.14;77.92
65203;HTU21D;51788;45.124;38.966;2023-02-11T06:24:05;-2.01;77.81
65203;HTU21D;51788;45.124;38.966;2023-02-11T06:26:31;-1.90;77.63
65203;HTU21D;51788;45.124;38.966;2023-02-11T06:28:59;-1.75;77.47
65203;HTU21D;51788;45.124;38.966;2023-02-11T06:31:25;-1.68;77.16
65203;HTU21D;51788;45.124;38.966;2023-02-11T06:33:51;-1.58;77.18
65203;HTU21D;51788;45.124;38.966;2023-02-11T06:36:21;-1.50;77.08
65203;HTU21D;51788;45.124;38.966;2023-02-11T06:38:48;-1.46;77.01
65203;HTU21D;51788;45.124;38.966;2023-02-11T06:41:17;-1.39;77.02
65203;HTU21D;51788;45.124;38.966;2023-02-11T06:43:45;-1.29;76.98
65203;HTU21D;51788;45.124;38.966;2023-02-11T06:46:11;-1.29;76.92
65203;HTU21D;51788;45.124;38.966;2023-02-11T06:48:37;-1.32;77.20
65203;HTU21D;51788;45.124;38.966;2023-02-11T06:51:05;-1.35;77.24
65203;HTU21D;51788;45.124;38.966;2023-02-11T06:53:35;-1.47;77.56
65203;HTU21D;51788;45.124;38.966;2023-02-11T06:56:02;-1.33;77.59
65203;HTU21D;51788;45.124;38.966;2023-02-11T06:58:28;-1.16;77.29
65203;HTU21D;51788;45.124;38.966;2023-02-11T07:00:54;-1.00;76.77
65203;HTU21D;51788;45.124;38.966;2023-02-11T07:03:20;-0.90;76.53
65203;HTU21D;51788;45.124;38.966;2023-02-11T07:05:46;-0.99;76.16
65203;HTU21D;51788;45.124;38.966;2023-02-11T07:08:12;-0.97;76.34
65203;HTU21D;51788;45.124;38.966;2023-02-11T07:10:38;-0.87;75.76
65203;HTU21D;51788;45.124;38.966;2023-02-11T07:13:04;-0.80;75.50
65203;HTU21D;51788;45.124;38.966;2023-02-11T07:15:30;-0.71;75.16
65203;HTU21D;51788;45.124;38.966;2023-02-11T07:17:58;-0.61;75.27
65203;HTU21D;51788;45.124;38.966;2023-02-11T07:20:25;-0.53;74.88
65203;HTU21D;51788;45.124;38.966;2023-02-11T07:22:51;-0.41;75.10
65203;HTU21D;51788;45.124;38.966;2023-02-11T07:25:17;-0.35;74.44
65203;HTU21D;51788;45.124;38.966;2023-02-11T07:27:42;-0.29;74.42
65203;HTU21D;51788;45.124;38.966;2023-02-11T07:30:09;-0.20;74.57
65203;HTU21D;51788;45.124;38.966;2023-02-11T07:32:35;-0.12;74.28
65203;HTU21D;51788;45.124;38.966;2023-02-11T07:35:01;-0.08;74.22
65203;HTU21D;51788;45.124;38.966;2023-02-11T07:37:28;-0.08;74.32
65203;HTU21D;51788;45.124;38.966;2023-02-11T07:39:54;-0.10;73.96
65203;HTU21D;51788;45.124;38.966;2023-02-11T07:42:20;-0.14;74.13
65203;HTU21D;51788;45.124;38.966;2023-02-11T07:44:46;-0.29;74.25
65203;HTU21D;51788;45.124;38.966;2023-02-11T07:47:12;-0.60;74.82
65203;HTU21D;51788;45.124;38.966;2023-02-11T07:49:37;-0.62;75.39
65203;HTU21D;51788;45.124;38.966;2023-02-11T07:52:03;-0.57;75.30
65203;HTU21D;51788;45.124;38.966;2023-02-11T07:54:29;-0.47;75.41
65203;HTU21D;51788;45.124;38.966;2023-02-11T07:56:55;-0.43;75.26
65203;HTU21D;51788;45.124;38.966;2023-02-11T07:59:21;-0.42;75.28
65203;HTU21D;51788;45.124;38.966;2023-02-11T08:01:49;-0.47;75.30
65203;HTU21D;51788;45.124;38.966;2023-02-11T08:04:16;-0.53;75.41
65203;HTU21D;51788;45.124;38.966;2023-02-11T08:06:42;-0.39;75.57
65203;HTU21D;51788;45.124;38.966;2023-02-11T08:09:12;-0.29;75.27
65203;HTU21D;51788;45.124;38.966;2023-02-11T08:11:38;-0.22;75.05
65203;HTU21D;51788;45.124;38.966;2023-02-11T08:14:04;-0.10;74.74
65203;HTU21D;51788;45.124;38.966;2023-02-11T08:16:33;-0.06;74.67
65203;HTU21D;51788;45.124;38.966;2023-02-11T08:19:02;-0.29;74.90
65203;HTU21D;51788;45.124;38.966;2023-02-11T08:21:29;-0.38;75.38
65203;HTU21D;51788;45.124;38.966;2023-02-11T08:23:55;-0.23;75.23
65203;HTU21D;51788;45.124;38.966;2023-02-11T08:26:24;-0.07;74.60
65203;HTU21D;51788;45.124;38.966;2023-02-11T08:28:52;0.08;74.14
65203;HTU21D;51788;45.124;38.966;2023-02-11T08:31:24;0.21;74.03
65203;HTU21D;51788;45.124;38.966;2023-02-11T08:33:52;0.34;73.72
65203;HTU21D;51788;45.124;38.966;2023-02-11T08:36:24;0.30;73.65
65203;HTU21D;51788;45.124;38.966;2023-02-11T08:38:50;0.21;74.02
65203;HTU21D;51788;45.124;38.966;2023-02-11T08:41:18;0.27;74.07
65203;HTU21D;51788;45.124;38.966;2023-02-11T08:43:44;0.29;73.76
65203;HTU21D;51788;45.124;38.966;2023-02-11T08:46:13;0.35;73.71
65203;HTU21D;51788;45.124;38.966;2023-02-11T08:48:39;0.40;73.70
65203;HTU21D;51788;45.124;38.966;2023-02-11T08:51:11;0.35;73.60
65203;HTU21D;51788;45.124;38.966;2023-02-11T08:53:38;0.33;73.75
65203;HTU21D;51788;45.124;38.966;2023-02-11T08:56:04;0.36;73.67
65203;HTU21D;51788;45.124;38.966;2023-02-11T08:58:31;0.45;73.69
65203;HTU21D;51788;45.124;38.966;2023-02-11T09:00:57;0.51;73.56
65203;HTU21D;51788;45.124;38.966;2023-02-11T09:03:24;0.49;73.47
65203;HTU21D;51788;45.124;38.966;2023-02-11T09:05:50;0.43;73.57
65203;HTU21D;51788;45.124;38.966;2023-02-11T09:08:20;0.42;73.51
65203;HTU21D;51788;45.124;38.966;2023-02-11T09:10:47;0.37;73.70
65203;HTU21D;51788;45.124;38.966;2023-02-11T09:13:14;0.37;73.67
65203;HTU21D;51788;45.124;38.966;2023-02-11T09:15:44;0.45;72.87
65203;HTU21D;51788;45.124;38.966;2023-02-11T09:18:11;0.54;72.83
65203;HTU21D;51788;45.124;38.966;2023-02-11T09:20:37;0.65;72.64
65203;HTU21D;51788;45.124;38.966;2023-02-11T09:23:03;0.71;72.26
65203;HTU21D;51788;45.124;38.966;2023-02-11T09:25:29;0.78;72.49
65203;HTU21D;51788;45.124;38.966;2023-02-11T09:27:55;0.68;72.60
65203;HTU21D;51788;45.124;38.966;2023-02-11T09:30:21;0.64;73.03
65203;HTU21D;51788;45.124;38.966;2023-02-11T09:32:47;0.73;72.96
65203;HTU21D;51788;45.124;38.966;2023-02-11T09:35:13;0.76;72.87
65203;HTU21D;51788;45.124;38.966;2023-02-11T09:37:39;0.55;73.13
65203;HTU21D;51788;45.124;38.966;2023-02-11T09:40:05;0.43;73.50
65203;HTU21D;51788;45.124;38.966;2023-02-11T09:42:50;0.44;73.63
65203;HTU21D;51788;45.124;38.966;2023-02-11T09:45:26;0.43;73.57
65203;HTU21D;51788;45.124;38.966;2023-02-11T09:47:57;0.52;73.12
65203;HTU21D;51788;45.124;38.966;2023-02-11T09:50:33;0.43;73.32
65203;HTU21D;51788;45.124;38.966;2023-02-11T09:53:08;0.50;72.94
65203;HTU21D;51788;45.124;38.966;2023-02-11T09:55:42;0.49;73.12
65203;HTU21D;51788;45.124;38.966;2023-02-11T09:58:16;0.25;73.17
65203;HTU21D;51788;45.124;38.966;2023-02-11T10:15:28;0.75;72.25
65203;HTU21D;51788;45.124;38.966;2023-02-11T10:18:09;0.78;72.34
65203;HTU21D;51788;45.124;38.966;2023-02-11T10:23:46;0.84;72.10
65203;HTU21D;51788;45.124;38.966;2023-02-11T10:26:16;0.86;72.06
65203;HTU21D;51788;45.124;38.966;2023-02-11T10:28:45;0.93;72.15
65203;HTU21D;51788;45.124;38.966;2023-02-11T10:31:27;0.99;72.15
65203;HTU21D;51788;45.124;38.966;2023-02-11T10:33:59;1.05;71.62
65203;HTU21D;51788;45.124;38.966;2023-02-11T10:36:36;1.09;71.74
65203;HTU21D;51788;45.124;38.966;2023-02-11T10:39:24;1.05;71.77
65203;HTU21D;51788;45.124;38.966;2023-02-11T10:41:59;0.62;72.06
65203;HTU21D;51788;45.124;38.966;2023-02-11T10:44:32;0.32;72.79
65203;HTU21D;51788;45.124;38.966;2023-02-11T10:47:04;0.03;73.09
65203;HTU21D;51788;45.124;38.966;2023-02-11T10:49:40;-0.01;73.54
65203;HTU21D;51788;45.124;38.966;2023-02-11T10:52:26;-0.08;73.73
65203;HTU21D;51788;45.124;38.966;2023-02-11T10:54:58;-0.21;73.48
65203;HTU21D;51788;45.124;38.966;2023-02-11T10:57:32;-0.27;73.80
65203;HTU21D;51788;45.124;38.966;2023-02-11T11:00:19;-0.34;73.76
65203;HTU21D;51788;45.124;38.966;2023-02-11T11:02:55;-0.41;73.82
65203;HTU21D;51788;45.124;38.966;2023-02-11T11:05:54;-0.31;74.03
65203;HTU21D;51788;45.124;38.966;2023-02-11T11:08:20;-0.22;73.67
65203;HTU21D;51788;45.124;38.966;2023-02-11T11:11:06;-0.05;73.62
65203;HTU21D;51788;45.124;38.966;2023-02-11T11:13:41;0.02;73.53
65203;HTU21D;51788;45.124;38.966;2023-02-11T11:16:19;0.18;73.18
65203;HTU21D;51788;45.124;38.966;2023-02-11T11:18:48;0.29;72.93
65203;HTU21D;51788;45.124;38.966;2023-02-11T11:21:18;0.38;72.80
65203;HTU21D;51788;45.124;38.966;2023-02-11T11:26:20;0.40;72.59
65203;HTU21D;51788;45.124;38.966;2023-02-11T11:29:08;0.46;72.90
65203;HTU21D;51788;45.124;38.966;2023-02-11T11:31:46;0.57;72.68
65203;HTU21D;51788;45.124;38.966;2023-02-11T11:34:34;0.37;72.84
65203;HTU21D;51788;45.124;38.966;2023-02-11T11:37:11;0.27;73.36
65203;HTU21D;51788;45.124;38.966;2023-02-11T11:39:39;0.30;73.36
65203;HTU21D;51788;45.124;38.966;2023-02-11T11:42:24;0.42;73.17
65203;HTU21D;51788;45.124;38.966;2023-02-11T11:45:21;0.52;73.18
65203;HTU21D;51788;45.124;38.966;2023-02-11T11:50:39;0.82;72.53
65203;HTU21D;51788;45.124;38.966;2023-02-11T11:55:47;0.68;72.66
65203;HTU21D;51788;45.124;38.966;2023-02-11T11:58:18;0.67;72.79
65203;HTU21D;51788;45.124;38.966;2023-02-11T12:01:02;0.79;72.59
65203;HTU21D;51788;45.124;38.966;2023-02-11T12:09:01;0.54;72.71
65203;HTU21D;51788;45.124;38.966;2023-02-11T12:14:33;0.28;72.86
65203;HTU21D;51788;45.124;38.966;2023-02-11T12:34:00;-0.01;73.44
65203;HTU21D;51788;45.124;38.966;2023-02-11T12:42:26;0.18;72.98
65203;HTU21D;51788;45.124;38.966;2023-02-11T12:55:37;-0.07;73.41
65203;HTU21D;51788;45.124;38.966;2023-02-11T12:58:11;0.03;73.48
65203;HTU21D;51788;45.124;38.966;2023-02-11T13:00:46;0.14;73.19
65203;HTU21D;51788;45.124;38.966;2023-02-11T13:03:24;0.09;72.85
65203;HTU21D;51788;45.124;38.966;2023-02-11T13:05:54;-0.02;73.17
65203;HTU21D;51788;45.124;38.966;2023-02-11T13:08:41;0.01;73.08
65203;HTU21D;51788;45.124;38.966;2023-02-11T13:11:34;-0.08;73.24
65203;HTU21D;51788;45.124;38.966;2023-02-11T13:14:15;-0.08;73.28
65203;HTU21D;51788;45.124;38.966;2023-02-11T13:16:48;-0.11;73.22
65203;HTU21D;51788;45.124;38.966;2023-02-11T13:19:45;-0.29;73.41
65203;HTU21D;51788;45.124;38.966;2023-02-11T13:22:26;-0.31;73.60
65203;HTU21D;51788;45.124;38.966;2023-02-11T13:25:19;-0.24;73.48
65203;HTU21D;51788;45.124;38.966;2023-02-11T13:28:17;-0.29;73.24
65203;HTU21D;51788;45.124;38.966;2023-02-11T13:30:39;-0.38;73.52
65203;HTU21D;51788;45.124;38.966;2023-02-11T13:35:46;-0.27;73.09
65203;HTU21D;51788;45.124;38.966;2023-02-11T13:38:22;-0.26;72.82
65203;HTU21D;51788;45.124;38.966;2023-02-11T13:43:27;-0.35;73.25
65203;HTU21D;51788;45.124;38.966;2023-02-11T13:48:35;-0.30;73.23
65203;HTU21D;51788;45.124;38.966;2023-02-11T13:51:06;-0.35;73.25
65203;HTU21D;51788;45.124;38.966;2023-02-11T13:53:54;-0.30;73.16
65203;HTU21D;51788;45.124;38.966;2023-02-11T13:56:31;-0.30;73.22
65203;HTU21D;51788;45.124;38.966;2023-02-11T13:58:59;-0.37;73.09
65203;HTU21D;51788;45.124;38.966;2023-02-11T14:04:33;-0.41;73.38
65203;HTU21D;51788;45.124;38.966;2023-02-11T14:07:32;-0.38;73.16
65203;HTU21D;51788;45.124;38.966;2023-02-11T14:13:32;-0.62;73.38
65203;HTU21D;51788;45.124;38.966;2023-02-11T14:16:18;-0.74;73.72
65203;HTU21D;51788;45.124;38.966;2023-02-11T14:26:46;-0.66;73.74
65203;HTU21D;51788;45.124;38.966;2023-02-11T14:29:35;-0.67;73.80
65203;HTU21D;51788;45.124;38.966;2023-02-11T14:40:07;-0.52;73.52
65203;HTU21D;51788;45.124;38.966;2023-02-11T14:42:36;-0.45;73.32
65203;HTU21D;51788;45.124;38.966;2023-02-11T14:45:06;-0.41;73.23
65203;HTU21D;51788;45.124;38.966;2023-02-11T14:47:48;-0.39;73.16
65203;HTU21D;51788;45.124;38.966;2023-02-11T14:50:23;-0.38;73.07
65203;HTU21D;51788;45.124;38.966;2023-02-11T14:52:50;-0.37;73.12
65203;HTU21D;51788;45.124;38.966;2023-02-11T14:58:19;-0.35;73.16
65203;HTU21D;51788;45.124;38.966;2023-02-11T15:01:03;-0.36;73.15
65203;HTU21D;51788;45.124;38.966;2023-02-11T15:03:40;-0.31;73.16
65203;HTU21D;51788;45.124;38.966;2023-02-11T15:06:22;-0.31;73.18
65203;HTU21D;51788;45.124;38.966;2023-02-11T15:08:58;-0.29;73.07
65203;HTU21D;51788;45.124;38.966;2023-02-11T15:11:33;-0.28;73.15
65203;HTU21D;51788;45.124;38.966;2023-02-11T15:14:33;-0.27;73.15
65203;HTU21D;51788;45.124;38.966;2023-02-11T15:17:03;-0.26;73.11
65203;HTU21D;51788;45.124;38.966;2023-02-11T15:19:40;-0.24;73.10
65203;HTU21D;51788;45.124;38.966;2023-02-11T15:22:34;-0.24;73.14
65203;HTU21D;51788;45.124;38.966;2023-02-11T15:25:14;-0.21;73.12
65203;HTU21D;51788;45.124;38.966;2023-02-11T15:27:46;-0.19;73.08
65203;HTU21D;51788;45.124;38.966;2023-02-11T15:32:53;-0.11;72.87
65203;HTU21D;51788;45.124;38.966;2023-02-11T15:35:28;-0.09;72.83
65203;HTU21D;51788;45.124;38.966;2023-02-11T15:37:56;-0.08;72.85
65203;HTU21D;51788;45.124;38.966;2023-02-11T15:40:28;-0.06;72.77
65203;HTU21D;51788;45.124;38.966;2023-02-11T15:43:03;-0.02;72.77
65203;HTU21D;51788;45.124;38.966;2023-02-11T15:45:43;0.01;72.83
65203;HTU21D;51788;45.124;38.966;2023-02-11T15:50:53;0.02;72.80
65203;HTU21D;51788;45.124;38.966;2023-02-11T15:58:42;-0.00;73.04
65203;HTU21D;51788;45.124;38.966;2023-02-11T16:01:10;-0.03;73.10
65203;HTU21D;51788;45.124;38.966;2023-02-11T16:03:37;-0.01;73.12
65203;HTU21D;51788;45.124;38.966;2023-02-11T16:06:24;-0.01;73.20
65203;HTU21D;51788;45.124;38.966;2023-02-11T16:11:34;-0.12;73.36
65203;HTU21D;51788;45.124;38.966;2023-02-11T16:14:01;-0.25;73.41
65203;HTU21D;51788;45.124;38.966;2023-02-11T16:16:46;-0.36;73.63
65203;HTU21D;51788;45.124;38.966;2023-02-11T16:19:18;-0.40;73.82
65203;HTU21D;51788;45.124;38.966;2023-02-11T16:21:45;-0.40;73.82
65203;HTU21D;51788;45.124;38.966;2023-02-11T16:24:33;-0.41;73.86
65203;HTU21D;51788;45.124;38.966;2023-02-11T16:27:02;-0.44;73.86
65203;HTU21D;51788;45.124;38.966;2023-02-11T16:29:30;-0.46;73.90
65203;HTU21D;51788;45.124;38.966;2023-02-11T16:32:08;-0.47;73.83
65203;HTU21D;51788;45.124;38.966;2023-02-11T16:34:35;-0.51;73.86
65203;HTU21D;51788;45.124;38.966;2023-02-11T16:37:03;-0.51;73.88
65203;HTU21D;51788;45.124;38.966;2023-02-11T16:39:29;-0.50;73.89
65203;HTU21D;51788;45.124;38.966;2023-02-11T16:41:55;-0.51;73.84
65203;HTU21D;51788;45.124;38.966;2023-02-11T16:44:21;-0.54;73.81
65203;HTU21D;51788;45.124;38.966;2023-02-11T16:46:48;-0.56;73.85
65203;HTU21D;51788;45.124;38.966;2023-02-11T16:49:27;-0.55;73.93
65203;HTU21D;51788;45.124;38.966;2023-02-11T16:51:58;-0.54;73.96
65203;HTU21D;51788;45.124;38.966;2023-02-11T16:54:26;-0.53;73.99
65203;HTU21D;51788;45.124;38.966;2023-02-11T16:56:53;-0.52;74.05
65203;HTU21D;51788;45.124;38.966;2023-02-11T16:59:19;-0.52;74.06
65203;HTU21D;51788;45.124;38.966;2023-02-11T17:01:45;-0.55;74.12
65203;HTU21D;51788;45.124;38.966;2023-02-11T17:04:19;-0.55;74.15
65203;HTU21D;51788;45.124;38.966;2023-02-11T17:06:46;-0.57;74.15
65203;HTU21D;51788;45.124;38.966;2023-02-11T17:09:23;-0.62;74.23
65203;HTU21D;51788;45.124;38.966;2023-02-11T17:11:50;-0.68;74.38
65203;HTU21D;51788;45.124;38.966;2023-02-11T17:14:17;-0.67;74.50
65203;HTU21D;51788;45.124;38.966;2023-02-11T17:16:44;-0.67;74.54
65203;HTU21D;51788;45.124;38.966;2023-02-11T17:19:12;-0.68;74.66
65203;HTU21D;51788;45.124;38.966;2023-02-11T17:21:43;-0.67;74.80
65203;HTU21D;51788;45.124;38.966;2023-02-11T17:24:09;-0.66;74.84
65203;HTU21D;51788;45.124;38.966;2023-02-11T17:26:37;-0.70;74.81
65203;HTU21D;51788;45.124;38.966;2023-02-11T17:29:05;-0.75;74.98
65203;HTU21D;51788;45.124;38.966;2023-02-11T17:31:32;-0.71;75.07
65203;HTU21D;51788;45.124;38.966;2023-02-11T17:33:58;-0.67;74.96
65203;HTU21D;51788;45.124;38.966;2023-02-11T17:36:25;-0.66;75.05
65203;HTU21D;51788;45.124;38.966;2023-02-11T17:38:51;-0.64;75.02
65203;HTU21D;51788;45.124;38.966;2023-02-11T17:41:19;-0.66;75.04
65203;HTU21D;51788;45.124;38.966;2023-02-11T17:43:45;-0.73;75.10
65203;HTU21D;51788;45.124;38.966;2023-02-11T17:46:11;-0.79;75.22
65203;HTU21D;51788;45.124;38.966;2023-02-11T17:48:38;-0.80;75.38
65203;HTU21D;51788;45.124;38.966;2023-02-11T17:51:05;-0.83;75.44